Nearby METAR Reports

 

KALB - Albany, New York, USA
Distance from station: E 47mi, 75km
Updated: Thu, 09-Jul-2020 9:51pm EDT
Few Clouds
Few Clouds
 Wind from SE
Wind: SE 5 mph , 7 km/h
Temperature: 84°F , 29°C
Heat Index: 88°F , 31°C
Dew Point: 70°F , 21°C
Humidity: 62%
Barometer: 29.96 inHg , 1014.6 hPa
Clouds: Few Clouds
Visibility: 10 miles , 16 km
Cloud details: Few Clouds 9000 ft
Few Clouds 25000 ft
2020/07/10 01:51 KALB 100151Z 14004KT 10SM FEW090 FEW250 29/21 A2996 RMK AO2 SLP141 T02940206
KSLK - Saranac Lake, New York, USA
Distance from station: N 110mi, 177km
Updated: Thu, 09-Jul-2020 9:51pm EDT
Clear
Clear
 Wind from calm
Wind: Calm
Temperature: 70°F , 21°C
Dew Point: 66°F , 19°C
Humidity: 88%
Barometer: 30.01 inHg , 1016.3 hPa
Clouds: Clear
Visibility: 10 miles , 16 km
2020/07/10 01:51 KSLK 100151Z AUTO 00000KT 10SM CLR 21/19 A3001 RMK AO2 SLP151 T02060189
 
KSYR - Syracuse, New York, USA
Distance from station: W 73mi, 117km
Updated: Thu, 09-Jul-2020 9:54pm EDT
Few Clouds
Few Clouds
 Wind from SE
Wind: SE 6 mph , 9 km/h
Temperature: 82°F , 28°C
Heat Index: 84°F , 29°C
Dew Point: 66°F , 19°C
Humidity: 58%
Barometer: 29.92 inHg , 1013.2 hPa
Clouds: Few Clouds
Visibility: 10 miles , 16 km
Cloud details: Few Clouds 20000 ft
2020/07/10 01:54 KSYR 100154Z 13005KT 10SM FEW200 28/19 A2992 RMK AO2 SLP126 T02830189
KBGM - Binghamton, New York, USA
Distance from station: SW 78mi, 126km
Updated: Thu, 09-Jul-2020 9:53pm EDT
Clear
Clear
 Wind from SSE
Wind: SSE 6 mph , 9 km/h
Temperature: 77°F , 25°C
Dew Point: 68°F , 20°C
Humidity: 74%
Barometer: 30.01 inHg , 1016.3 hPa
Clouds: Clear
Visibility: 10 miles , 16 km
2020/07/10 01:53 KBGM 100153Z AUTO 16005KT 10SM CLR 25/20 A3001 RMK AO2 SLP149 T02500200
 
KRME - Rome, New York, USA
Distance from station: WNW 43mi, 69km
Updated: Thu, 09-Jul-2020 9:53pm EDT
Clear
Clear
 Wind from E
Wind: E 5 mph , 7 km/h
Temperature: 82°F , 28°C
Heat Index: 86°F , 30°C
Dew Point: 70°F , 21°C
Humidity: 66%
Barometer: 29.95 inHg , 1014.2 hPa
Clouds: Clear
Visibility: 10 miles , 16 km
2020/07/10 01:53 KRME 100153Z AUTO 08004KT 10SM CLR 28/21 A2995 RMK AO2 SLP134 T02780211
KJFK - New York, New York, USA
Distance from station: SSE 159mi, 256km
Updated: Thu, 09-Jul-2020 9:51pm EDT
Mostly cloudy
Mostly cloudy
 Wind from E
Wind: E 7 mph , 11 km/h
Temperature: 77°F , 25°C
Dew Point: 73°F , 23°C
Humidity: 89%
Barometer: 29.98 inHg , 1015.2 hPa
Clouds: Mostly cloudy
Visibility: 10 miles , 16 km
Cloud details: Few Clouds 1100 ft
Mostly cloudy 25000 ft
2020/07/10 01:51 KJFK 100151Z 09006KT 10SM FEW011 BKN250 25/23 A2998 RMK AO2 SLP153 T02500228
 
KROC - Rochester, New York, USA
Distance from station: W 150mi, 242km
Updated: Thu, 09-Jul-2020 9:54pm EDT
Mostly cloudy
Mostly cloudy
 Wind from NW
Wind: NW 6 mph , 9 km/h
Temperature: 82°F , 28°C
Heat Index: 85°F , 29°C
Dew Point: 68°F , 20°C
Humidity: 62%
Barometer: 29.92 inHg , 1013.2 hPa
Clouds: Mostly cloudy
Visibility: 10 miles , 16 km
Cloud details: Partly cloudy 5000 ft
Mostly cloudy 18000 ft
2020/07/10 01:54 KROC 100154Z 31005KT 10SM SCT050 BKN180 28/20 A2992 RMK AO2 SLP131 T02780200
KART - Watertown, New York, USA
Distance from station: NNW 103mi, 166km
Updated: Thu, 09-Jul-2020 9:56pm EDT
Clear
Clear
 Wind from calm
Wind: Calm
Temperature: 75°F , 24°C
Dew Point: 66°F , 19°C
Humidity: 74%
Barometer: 29.91 inHg , 1012.9 hPa
Clouds: Clear
Visibility: 10 miles , 16 km
2020/07/10 01:56 KART 100156Z AUTO 00000KT 10SM CLR 24/19 A2991 RMK AO2 SLP121 T02390194 $
 
KELM - Elmira-Corning, New York, USA
Distance from station: SSW 121mi, 195km
Updated: Thu, 09-Jul-2020 9:53pm EDT
Clear
Clear
 Wind from WNW
Wind: WNW 3 mph , 6 km/h
Temperature: 77°F , 25°C
Dew Point: 70°F , 21°C
Humidity: 79%
Barometer: 29.95 inHg , 1014.2 hPa
Clouds: Clear
Visibility: 10 miles , 16 km
2020/07/10 01:53 KELM 100153Z AUTO 29003KT 10SM CLR 25/21 A2995 RMK AO2 SLP136 T02500206
KJHW - Jamestown, New York, USA
Distance from station: SW 238mi, 383km
Updated: Thu, 09-Jul-2020 9:56pm EDT
Partly cloudy
Partly cloudy
 Wind from WNW
Wind: WNW 5 mph , 7 km/h
Temperature: 77°F , 25°C
Dew Point: 70°F , 21°C
Humidity: 79%
Barometer: 29.99 inHg , 1015.6 hPa
Clouds: Partly cloudy
Visibility: 10 miles , 16 km
Cloud details: Partly cloudy 9500 ft
2020/07/10 01:56 KJHW 100156Z AUTO 30004KT 10SM SCT095 25/21 A2999 RMK AO2 LTG DSNT W-NE SLP146 T02500206
 
KMSS - Massena, New York, USA
Distance from station: N 141mi, 232km
Updated: Thu, 09-Jul-2020 9:53pm EDT
Clear
Clear
 Wind from calm
Wind: Calm
Temperature: 75°F , 24°C
Dew Point: 68°F , 20°C
Humidity: 78%
Barometer: 29.92 inHg , 1013.2 hPa
Clouds: Clear
Visibility: 10 miles , 16 km
2020/07/10 01:53 KMSS 100153Z AUTO 00000KT 10SM CLR 24/20 A2992 RMK AO2 SLP128 T02390200
KBUF - Buffalo, New York, USA
Distance from station: W 204mi, 328km
Updated: Thu, 09-Jul-2020 10:28pm EDT
Thunderstorm, Mostly cloudy
Thunderstorm, Mostly cloudy
 Wind from E
Wind: E 8 mph , 13 km/h
Temperature: 84°F , 29°C
Heat Index: 88°F , 31°C
Dew Point: 70°F , 21°C
Humidity: 62%
Barometer: 29.91 inHg , 1012.9 hPa
Summary: Thunderstorm
Clouds: Mostly cloudy
Visibility: 10 miles , 16 km
Cloud details: Few Clouds 7000 ft
Mostly cloudy 15000 ft
Mostly cloudy 22000 ft
Mostly cloudy 27000 ft
2020/07/10 02:28 KBUF 100228Z 10007KT 10SM TS FEW070CB BKN150 BKN220 BKN270 29/21 A2991 RMK AO2 LTG DSNT SW TSB27 FRQ LTGICCG VC SW-W TS VC SW-W MOV N T02890211